Golden Meadow, LA

4:46 PM CST on December 20, 2014 (GMT -0600)
Grand Isle | Change Station
CLOSE
Current Station
Airport
Location: Grand Isle,
Elevation: 7 ft
Nearby Weather Stations

Elev 7 ft 29.25 °N, 89.97 °W | Updated 9 days ago

Overcast
Overcast
55 °F
Feels Like 55 °F
N
12
Wind Variable Wind from NE
Gusts 17 mph

Today
High -- | Low -- °F
--% Chance of Precip.
Yesterday
High -- | Low -- °F
Precip. -- in
6:50 AM 5:06 PM
Waning Crescent, 2% visible
Pressure 30.24 in
Visibility 7.0 miles
Clouds Clear
Dew Point 52 °F
Humidity 85%
Rainfall 0.00 in
Snow Depth Not available.
UV 0 out of 12
Pollen 2.50 out of 12
Air Quality Not available.
Flu Activity Not available.
SPECI KAXO 111105Z 06006KT 7SM SKC 13/08 A3024

More Conditions Fewer Conditions

Pressure 30.24 in
Visibility 7.0 miles
Clouds Clear
Dew Point 52 °F
Humidity 85%
Rainfall 0.00 in
Snow Depth Not available.
UV 0 out of 12
Pollen 2.50 out of 12
Air Quality Not available.
Flu Activity Not available.
SPECI KAXO 111105Z 06006KT 7SM SKC 13/08 A3024

More Conditions Fewer Conditions

10-Day Weather Forecast

Almanac

Astronomy

Dec. 20, 2014 Rise Set
Actual Time
Civil Twilight
Nautical Twilight
Astronomical Twilight
Moon
Length of Visible Light
Length of Day
Tomorrow will be .
, % of the Moon is Illuminated

Today's Extremes

State Highs State Lows

Community

WunderPhotos

Upload Photos

1,779,293 photos uploaded!

WunderBlogs® & News

Nearby

Air Quality

  Air Quality AQ Index Pollutant
Not available.

Snow Depth

Station Depth Elevation

Earthquake Activity

City Distance Mag. Time & Date
Minimum magnitude displayed is 2.5.

Coastal Water Temperatures

Place Temperature

Nearby Weather Stations